Bow Victor — LAHC2 — position and weather

sailwx.info

Track history (hours):
 
Tides and Currents Weather Stations Pressure Air Temp Water Temp Dewpoint Dewpoint Depression Visibility Wind Speed Wind Dir Waves Ship Positions

Bow Victor

Last reported at 2015-Jul-28 04:33 UTC. Time now 2015-Jul-28 05:53 UTC.
Position N 51°58' E 004°02'.

Length 183 m; draft 7.2 m.

Type: Tanker. MMSI: 257873000.

Date/timePositionNaut miles runAvg speedWind from/ knotsBaromVisibWave heightAir tempDewpointWater temp
2015-Jul-28 04:33N 51°58' E 004°02'0 0.0
2015-Jul-28 03:33N 51°58' E 004°02'0 0.0
2015-Jul-28 02:33N 51°58' E 004°02'0 0.0
2015-Jul-28 01:33N 51°58' E 004°02'0 0.0
2015-Jul-28 00:30N 51°58' E 004°02'0 0.0
2015-Jul-27 23:33N 51°58' E 004°02'0 0.0
2015-Jul-27 22:33N 51°58' E 004°02'0 0.0
2015-Jul-27 21:33N 51°58' E 004°02'0 0.0
2015-Jul-27 20:33N 51°58' E 004°02'0 0.0
2015-Jul-27 19:33N 51°58' E 004°02'0 0.0
2015-Jul-27 18:33N 51°58' E 004°02'0 0.0
2015-Jul-27 17:33N 51°58' E 004°02'0 0.0
2015-Jul-27 16:33N 51°58' E 004°02'0 0.0
2015-Jul-27 15:33N 51°58' E 004°02'0 0.0
2015-Jul-27 14:33N 51°58' E 004°02'0 0.0
2015-Jul-27 13:33N 51°58' E 004°02'0 0.0
2015-Jul-27 12:33N 51°58' E 004°02'3 2.5
2015-Jul-27 11:34N 52°00' E 004°02'0 0.2
2015-Jul-27 10:33N 51°60' E 004°02'8 7.9
2015-Jul-27 09:33N 51°56' E 004°13'5 5.0
2015-Jul-27 08:32N 51°54' E 004°20'0 0.0
2015-Jul-27 07:32N 51°54' E 004°20'0 0.0
2015-Jul-27 06:32N 51°54' E 004°20'0 0.0
2015-Jul-27 05:32N 51°54' E 004°20'0 0.0
2015-Jul-27 04:32N 51°54' E 004°20'0 0.0
2015-Jul-27 03:32N 51°54' E 004°20'0 0.0
2015-Jul-27 02:32N 51°54' E 004°20'0 0.0
2015-Jul-27 01:32N 51°54' E 004°20'0 0.0
2015-Jul-27 00:32N 51°54' E 004°20'0 0.0
2015-Jul-26 23:32N 51°54' E 004°20'0 0.0
2015-Jul-26 22:32N 51°54' E 004°20'0 0.0
2015-Jul-26 21:32N 51°54' E 004°20'0 0.0
2015-Jul-26 20:32N 51°54' E 004°20'0 0.0
2015-Jul-26 19:32N 51°54' E 004°20'0 0.0
2015-Jul-26 18:32N 51°54' E 004°20'0 0.0
2015-Jul-26 17:29N 51°54' E 004°20'0 0.0
2015-Jul-26 16:32N 51°54' E 004°20'0 0.0
2015-Jul-26 15:29N 51°54' E 004°20'0 0.0
2015-Jul-26 14:32N 51°54' E 004°20'0 0.0
2015-Jul-26 13:32N 51°54' E 004°20'0 0.0
2015-Jul-26 12:32N 51°54' E 004°20'0 0.0
2015-Jul-26 11:32N 51°54' E 004°20'0 0.0
2015-Jul-26 10:32N 51°54' E 004°20'0 0.0
2015-Jul-26 09:32N 51°54' E 004°20'0 0.0
2015-Jul-26 08:32N 51°54' E 004°20'0 0.0
2015-Jul-26 07:32N 51°54' E 004°20'0 0.0
2015-Jul-26 06:32N 51°54' E 004°20'0 0.0
2015-Jul-26 05:32N 51°54' E 004°20'0 0.0
2015-Jul-26 04:32N 51°54' E 004°20'0 0.0
2015-Jul-26 03:32N 51°54' E 004°20'0 0.1
2015-Jul-26 02:34N 51°54' E 004°20'6 6.1
2015-Jul-26 01:33N 51°56' E 004°12'1111.0
2015-Jul-26 00:33N 52°00' E 003°55'1110.0
2015-Jul-25 23:28N 51°58' E 003°38'1212.9
2015-Jul-25 22:33N 51°55' E 003°19'5212.4
2015-Jul-25 18:23N 51°25' E 002°11'1012.4
2015-Jul-25 17:33N 51°15' E 002°05'1212.3
2015-Jul-25 16:33N 51°08' E 001°49'1212.0
2015-Jul-25 15:34N 50°60' E 001°35'  
2015-Jul-20 21:07N 40°03' W 009°56'4312.0
2015-Jul-20 17:33N 39°21' W 009°56'1212.1
2015-Jul-20 16:33N 39°09' W 009°56'1313.0
2015-Jul-20 15:33N 38°56' W 009°56'1312.6
2015-Jul-20 14:33N 38°43' W 009°56'1212.3
2015-Jul-20 13:33N 38°31' W 009°53'1212.3
2015-Jul-20 12:33N 38°19' W 009°49'1212.0
2015-Jul-20 11:33N 38°07' W 009°45'4011.9
2015-Jul-20 08:14N 37°29' W 009°33'1012.4
2015-Jul-20 07:27N 37°20' W 009°31'1312.5
2015-Jul-20 06:26N 37°07' W 009°27'1112.4
2015-Jul-20 05:32N 36°56' W 009°25'1212.3
2015-Jul-20 04:32N 36°46' W 009°16'1412.3
2015-Jul-20 03:25N 36°38' W 009°02'1112.5
2015-Jul-20 02:34N 36°34' W 008°50'1212.3
2015-Jul-20 01:33N 36°31' W 008°35'1312.5
2015-Jul-20 00:29N 36°26' W 008°20'1212.2
2015-Jul-19 23:29N 36°22' W 008°06'1111.8
2015-Jul-19 22:33N 36°18' W 007°53'1211.9
2015-Jul-19 21:33N 36°15' W 007°38'1211.7
2015-Jul-19 20:33N 36°10' W 007°25'1111.1
2015-Jul-19 19:32N 36°06' W 007°12'1111.1
2015-Jul-19 18:33N 36°02' W 006°60'1211.9
2015-Jul-19 17:33N 35°58' W 006°45'1211.8
2015-Jul-19 16:33N 35°58' W 006°31'2412.0
2015-Jul-19 14:33N 35°58' W 006°01'16611.6
2015-Jul-19 00:14N 36°24' W 002°38'1012.3
2015-Jul-18 23:25N 36°26' W 002°25'1412.4
2015-Jul-18 22:19N 36°29' W 002°09'1013.2
2015-Jul-18 21:33N 36°34' W 001°57'1412.9
2015-Jul-18 20:30N 36°43' W 001°45'1313.1
2015-Jul-18 19:32N 36°50' W 001°32'1212.2
2015-Jul-18 18:32N 36°55' W 001°18'1412.7
2015-Jul-18 17:28N 37°03' W 001°05'1312.7
2015-Jul-18 16:28N 37°11' W 000°52'1112.4
2015-Jul-18 15:33N 37°18' W 000°41'1312.6
2015-Jul-18 14:33N 37°26' W 000°29'1312.8
2015-Jul-18 13:33N 37°35' W 000°17'1413.1
2015-Jul-18 12:31N 37°46' W 000°08'1312.8
2015-Jul-18 11:31N 37°57' W 000°00'1513.4
2015-Jul-18 10:26N 38°10' E 000°10'1313.4
2015-Jul-18 09:30N 38°21' E 000°17'1513.2
2015-Jul-18 08:22N 38°33' E 000°28'1012.8
2015-Jul-18 07:33N 38°42' E 000°34'1412.3
2015-Jul-18 06:27N 38°56' E 000°33'  
Track history (hours):
 
Tides and Currents Weather Stations Pressure Air Temp Water Temp Dewpoint Dewpoint Depression Visibility Wind Speed Wind Dir Waves Ship Positions

Bow Victor

Last reported at 2015-Jul-28 04:33 UTC. Time now 2015-Jul-28 05:53 UTC.
Position N 51°58' E 004°02'.

Length 183 m; draft 7.2 m.

Type: Tanker. MMSI: 257873000.

Date/timePositionNaut miles runAvg speedWind from/ knotsBaromVisibWave heightAir tempDewpointWater temp
2015-Jul-28 04:33N 51°58' E 004°02'0 0.0
2015-Jul-28 03:33N 51°58' E 004°02'0 0.0
2015-Jul-28 02:33N 51°58' E 004°02'0 0.0
2015-Jul-28 01:33N 51°58' E 004°02'0 0.0
2015-Jul-28 00:30N 51°58' E 004°02'0 0.0
2015-Jul-27 23:33N 51°58' E 004°02'0 0.0
2015-Jul-27 22:33N 51°58' E 004°02'0 0.0
2015-Jul-27 21:33N 51°58' E 004°02'0 0.0
2015-Jul-27 20:33N 51°58' E 004°02'0 0.0
2015-Jul-27 19:33N 51°58' E 004°02'0 0.0
2015-Jul-27 18:33N 51°58' E 004°02'0 0.0
2015-Jul-27 17:33N 51°58' E 004°02'0 0.0
2015-Jul-27 16:33N 51°58' E 004°02'0 0.0
2015-Jul-27 15:33N 51°58' E 004°02'0 0.0
2015-Jul-27 14:33N 51°58' E 004°02'0 0.0
2015-Jul-27 13:33N 51°58' E 004°02'0 0.0
2015-Jul-27 12:33N 51°58' E 004°02'3 2.5
2015-Jul-27 11:34N 52°00' E 004°02'0 0.2
2015-Jul-27 10:33N 51°60' E 004°02'8 7.9
2015-Jul-27 09:33N 51°56' E 004°13'5 5.0
2015-Jul-27 08:32N 51°54' E 004°20'0 0.0
2015-Jul-27 07:32N 51°54' E 004°20'0 0.0
2015-Jul-27 06:32N 51°54' E 004°20'0 0.0
2015-Jul-27 05:32N 51°54' E 004°20'0 0.0
2015-Jul-27 04:32N 51°54' E 004°20'0 0.0
2015-Jul-27 03:32N 51°54' E 004°20'0 0.0
2015-Jul-27 02:32N 51°54' E 004°20'0 0.0
2015-Jul-27 01:32N 51°54' E 004°20'0 0.0
2015-Jul-27 00:32N 51°54' E 004°20'0 0.0
2015-Jul-26 23:32N 51°54' E 004°20'0 0.0
2015-Jul-26 22:32N 51°54' E 004°20'0 0.0
2015-Jul-26 21:32N 51°54' E 004°20'0 0.0
2015-Jul-26 20:32N 51°54' E 004°20'0 0.0
2015-Jul-26 19:32N 51°54' E 004°20'0 0.0
2015-Jul-26 18:32N 51°54' E 004°20'0 0.0
2015-Jul-26 17:29N 51°54' E 004°20'0 0.0
2015-Jul-26 16:32N 51°54' E 004°20'0 0.0
2015-Jul-26 15:29N 51°54' E 004°20'0 0.0
2015-Jul-26 14:32N 51°54' E 004°20'0 0.0
2015-Jul-26 13:32N 51°54' E 004°20'0 0.0
2015-Jul-26 12:32N 51°54' E 004°20'0 0.0
2015-Jul-26 11:32N 51°54' E 004°20'0 0.0
2015-Jul-26 10:32N 51°54' E 004°20'0 0.0
2015-Jul-26 09:32N 51°54' E 004°20'0 0.0
2015-Jul-26 08:32N 51°54' E 004°20'0 0.0
2015-Jul-26 07:32N 51°54' E 004°20'0 0.0
2015-Jul-26 06:32N 51°54' E 004°20'0 0.0
2015-Jul-26 05:32N 51°54' E 004°20'0 0.0
2015-Jul-26 04:32N 51°54' E 004°20'0 0.0
2015-Jul-26 03:32N 51°54' E 004°20'0 0.1
2015-Jul-26 02:34N 51°54' E 004°20'6 6.1
2015-Jul-26 01:33N 51°56' E 004°12'1111.0
2015-Jul-26 00:33N 52°00' E 003°55'1110.0
2015-Jul-25 23:28N 51°58' E 003°38'1212.9
2015-Jul-25 22:33N 51°55' E 003°19'5212.4
2015-Jul-25 18:23N 51°25' E 002°11'1012.4
2015-Jul-25 17:33N 51°15' E 002°05'1212.3
2015-Jul-25 16:33N 51°08' E 001°49'1212.0
2015-Jul-25 15:34N 50°60' E 001°35'  
2015-Jul-20 21:07N 40°03' W 009°56'4312.0
2015-Jul-20 17:33N 39°21' W 009°56'1212.1
2015-Jul-20 16:33N 39°09' W 009°56'1313.0
2015-Jul-20 15:33N 38°56' W 009°56'1312.6
2015-Jul-20 14:33N 38°43' W 009°56'1212.3
2015-Jul-20 13:33N 38°31' W 009°53'1212.3
2015-Jul-20 12:33N 38°19' W 009°49'1212.0
2015-Jul-20 11:33N 38°07' W 009°45'4011.9
2015-Jul-20 08:14N 37°29' W 009°33'1012.4
2015-Jul-20 07:27N 37°20' W 009°31'1312.5
2015-Jul-20 06:26N 37°07' W 009°27'1112.4
2015-Jul-20 05:32N 36°56' W 009°25'1212.3
2015-Jul-20 04:32N 36°46' W 009°16'1412.3
2015-Jul-20 03:25N 36°38' W 009°02'1112.5
2015-Jul-20 02:34N 36°34' W 008°50'1212.3
2015-Jul-20 01:33N 36°31' W 008°35'1312.5
2015-Jul-20 00:29N 36°26' W 008°20'1212.2
2015-Jul-19 23:29N 36°22' W 008°06'1111.8
2015-Jul-19 22:33N 36°18' W 007°53'1211.9
2015-Jul-19 21:33N 36°15' W 007°38'1211.7
2015-Jul-19 20:33N 36°10' W 007°25'1111.1
2015-Jul-19 19:32N 36°06' W 007°12'1111.1
2015-Jul-19 18:33N 36°02' W 006°60'1211.9
2015-Jul-19 17:33N 35°58' W 006°45'1211.8
2015-Jul-19 16:33N 35°58' W 006°31'2412.0
2015-Jul-19 14:33N 35°58' W 006°01'16611.6
2015-Jul-19 00:14N 36°24' W 002°38'1012.3
2015-Jul-18 23:25N 36°26' W 002°25'1412.4
2015-Jul-18 22:19N 36°29' W 002°09'1013.2
2015-Jul-18 21:33N 36°34' W 001°57'1412.9
2015-Jul-18 20:30N 36°43' W 001°45'1313.1
2015-Jul-18 19:32N 36°50' W 001°32'1212.2
2015-Jul-18 18:32N 36°55' W 001°18'1412.7
2015-Jul-18 17:28N 37°03' W 001°05'1312.7
2015-Jul-18 16:28N 37°11' W 000°52'1112.4
2015-Jul-18 15:33N 37°18' W 000°41'1312.6
2015-Jul-18 14:33N 37°26' W 000°29'1312.8
2015-Jul-18 13:33N 37°35' W 000°17'1413.1
2015-Jul-18 12:31N 37°46' W 000°08'1312.8
2015-Jul-18 11:31N 37°57' W 000°00'1513.4
2015-Jul-18 10:26N 38°10' E 000°10'1313.4
2015-Jul-18 09:30N 38°21' E 000°17'1513.2
2015-Jul-18 08:22N 38°33' E 000°28'1012.8
2015-Jul-18 07:33N 38°42' E 000°34'1412.3
2015-Jul-18 06:27N 38°56' E 000°33'  

Dump ship's entire track history